Ely Airport Yelland Field Ely US
ICAO: KELY
IATA: ELY
Category: Medium
Scheduled Services: No

Elevation: 6259 ft
TransAlt. 18000 ft.

Airport Communications:
ASOS:120.625
SALT LAKE CNTR:133.45
CTAF/UNICOM:122.8

KELY Zoom In..

Runways:

(A) RW 12 length 4825 ft width 60 ft
---- / hdg 127

(B) RW 18 length 6018 ft width 150 ft
---- / hdg 180

(C) RW 30 length 4825 ft width 60 ft
---- / hdg 307

(D) RW 36 length 6018 ft width 150 ft
---- / hdg 360

Location; KELY
Day. 20 / Time. 02.53 Zulu
* Altimeter: 30.22
* Temperature: 23° c. 73.4°f.
* Wind from: 160° Speed 16 kn with Gusts up to 35 kn.
Dewpoint: 08° c.
Visibility: 10 Statute Miles.
Clouds: Clear (automated report).

KELY 200253Z AUTO 16016G35KT 10SM CLR 23/08 A3022 RMK AO2 PK WND 13037/0216 WSHFT 0202 RAB02E11 SLP120 P0000 60000 T02280078 50013


Wind From 160°
Speed 16 kn.

 
 
jpsmedia.com for Web Design worldairports.se 2018   terms of use